createdAt,value
2019-04-07T00:01:52.706Z,2.23
2019-04-07T00:04:22.617Z,2.40
2019-04-07T00:06:53.201Z,2.33
2019-04-07T00:09:23.271Z,2.40
2019-04-07T00:11:53.620Z,2.43
2019-04-07T00:14:23.594Z,2.47
2019-04-07T00:16:53.744Z,2.80
2019-04-07T00:19:23.754Z,2.23
2019-04-07T00:21:53.991Z,2.40
2019-04-07T00:24:24.525Z,2.70
2019-04-07T00:26:54.569Z,2.87
2019-04-07T00:29:24.501Z,2.43
2019-04-07T00:31:54.397Z,2.50
2019-04-07T00:34:24.787Z,2.40
2019-04-07T00:36:54.773Z,2.63
2019-04-07T00:39:25.032Z,2.50
2019-04-07T00:41:55.097Z,2.90
2019-04-07T00:44:25.409Z,2.23
2019-04-07T00:46:55.312Z,2.97
2019-04-07T00:49:25.768Z,2.30
2019-04-07T00:51:57.374Z,2.87
2019-04-07T00:54:28.023Z,2.47
2019-04-07T00:56:59.269Z,2.40
2019-04-07T00:59:29.714Z,2.00
2019-04-07T01:02:00.304Z,2.73
2019-04-07T01:04:30.690Z,2.10
2019-04-07T01:07:00.770Z,2.70
2019-04-07T01:09:31.067Z,2.87
2019-04-07T01:12:01.165Z,2.70
2019-04-07T01:14:31.442Z,2.60
2019-04-07T01:17:01.685Z,3.23
2019-04-07T01:19:31.934Z,2.50
2019-04-07T01:22:02.362Z,2.37
2019-04-07T01:24:33.087Z,3.33
2019-04-07T01:27:03.010Z,3.40
2019-04-07T01:29:33.229Z,2.73
2019-04-07T01:32:03.770Z,3.20
2019-04-07T01:34:34.069Z,2.83
2019-04-07T01:37:04.405Z,3.40
2019-04-07T01:39:34.987Z,3.17
2019-04-07T01:42:33.306Z,3.30
2019-04-07T01:45:40.497Z,3.20
2019-04-07T01:48:16.086Z,3.20
2019-04-07T01:51:10.742Z,3.03
2019-04-07T01:53:55.194Z,3.60
2019-04-07T01:56:43.699Z,2.97
2019-04-07T01:59:32.420Z,3.07
2019-04-07T02:02:22.873Z,2.77
2019-04-07T02:05:11.486Z,2.50
2019-04-07T02:08:03.368Z,2.90
2019-04-07T02:11:04.036Z,2.97
2019-04-07T02:13:53.313Z,3.70
2019-04-07T02:16:41.132Z,2.80
2019-04-07T02:19:30.502Z,3.00
2019-04-07T02:22:10.165Z,3.40
2019-04-07T02:24:55.630Z,3.00
2019-04-07T02:27:31.826Z,2.93
2019-04-07T02:30:16.162Z,3.40
2019-04-07T02:33:03.268Z,3.37
2019-04-07T02:35:53.672Z,3.60
2019-04-07T02:38:51.984Z,3.57
2019-04-07T02:41:53.676Z,3.60
2019-04-07T02:44:46.466Z,3.07
2019-04-07T02:47:34.052Z,3.50
2019-04-07T02:50:15.387Z,3.33
2019-04-07T02:53:07.656Z,3.80
2019-04-07T02:55:56.855Z,4.03
2019-04-07T02:58:58.241Z,3.30
2019-04-07T03:01:43.465Z,3.37
2019-04-07T03:04:23.087Z,3.23
2019-04-07T03:07:04.929Z,3.50
2019-04-07T03:09:53.518Z,3.87
2019-04-07T03:12:37.722Z,3.43
2019-04-07T03:15:14.028Z,3.33
2019-04-07T03:18:03.194Z,3.77
2019-04-07T03:20:55.775Z,3.87
2019-04-07T03:23:41.534Z,3.60
2019-04-07T03:26:27.611Z,3.23
2019-04-07T03:29:16.471Z,3.57
2019-04-07T03:32:15.842Z,3.50
2019-04-07T03:35:19.796Z,3.47
2019-04-07T03:38:04.723Z,3.73
2019-04-07T03:40:52.361Z,3.47
2019-04-07T03:43:38.764Z,4.17
2019-04-07T03:46:22.372Z,4.07
2019-04-07T03:49:04.334Z,3.70
2019-04-07T03:51:59.893Z,3.70
2019-04-07T03:54:47.606Z,4.13
2019-04-07T03:57:24.193Z,3.63
2019-04-07T04:00:23.034Z,3.67
2019-04-07T04:03:02.915Z,3.87
2019-04-07T04:06:00.923Z,3.47
2019-04-07T04:08:41.825Z,4.27
2019-04-07T04:11:28.635Z,3.37
2019-04-07T04:14:13.349Z,3.40
2019-04-07T04:16:46.297Z,3.73
2019-04-07T04:19:16.195Z,3.50
2019-04-07T04:21:46.127Z,4.17
2019-04-07T04:24:16.746Z,4.20
2019-04-07T04:26:47.544Z,3.80
2019-04-07T04:29:17.607Z,4.20
2019-04-07T04:31:47.529Z,4.10
2019-04-07T04:34:17.443Z,4.00
2019-04-07T04:36:47.987Z,3.63
2019-04-07T04:39:19.656Z,4.07
2019-04-07T04:41:49.500Z,3.97
2019-04-07T04:44:19.418Z,3.93
2019-04-07T04:46:49.274Z,4.43
2019-04-07T04:49:19.989Z,4.17
2019-04-07T04:51:50.272Z,4.07
2019-04-07T04:54:20.179Z,4.23
2019-04-07T04:56:50.368Z,4.13
2019-04-07T04:59:21.552Z,3.80
2019-04-07T05:01:51.551Z,4.17
2019-04-07T05:04:21.754Z,4.00
2019-04-07T05:06:52.492Z,4.00
2019-04-07T05:09:23.163Z,3.93
2019-04-07T05:11:53.985Z,4.13
2019-04-07T05:14:24.189Z,4.33
2019-04-07T05:16:54.756Z,4.40
2019-04-07T05:19:24.756Z,5.03
2019-04-07T05:21:55.884Z,4.33
2019-04-07T05:24:25.861Z,4.07
2019-04-07T05:26:55.797Z,4.17
2019-04-07T05:29:25.891Z,5.03
2019-04-07T05:31:55.845Z,4.87
2019-04-07T05:34:25.809Z,4.53
2019-04-07T05:36:56.118Z,4.03
2019-04-07T05:39:26.034Z,4.07
2019-04-07T05:41:55.845Z,4.50
2019-04-07T05:44:25.706Z,4.90
2019-04-07T05:46:56.033Z,4.27
2019-04-07T05:49:27.045Z,4.70
2019-04-07T05:51:58.709Z,4.57
2019-04-07T05:54:28.672Z,4.90
2019-04-07T05:57:01.169Z,4.40
2019-04-07T05:59:30.356Z,4.73
2019-04-07T06:02:01.830Z,4.83
2019-04-07T06:04:31.872Z,4.97
2019-04-07T06:07:01.853Z,4.13
2019-04-07T06:09:33.801Z,4.20
2019-04-07T06:12:09.073Z,4.30
2019-04-07T06:14:34.850Z,5.00
2019-04-07T06:17:04.972Z,4.57
2019-04-07T06:19:40.580Z,3.93
2019-04-07T06:22:07.577Z,4.40
2019-04-07T06:24:38.413Z,4.67
2019-04-07T06:27:08.814Z,4.93
2019-04-07T06:29:39.097Z,4.20
2019-04-07T06:32:10.390Z,4.00
2019-04-07T06:34:43.358Z,4.50
2019-04-07T06:37:12.559Z,3.87
2019-04-07T06:39:41.885Z,4.47
2019-04-07T06:42:12.018Z,4.47
2019-04-07T06:44:41.977Z,4.00
2019-04-07T06:47:17.997Z,3.83
2019-04-07T06:49:55.392Z,4.50
2019-04-07T06:52:56.661Z,4.40
2019-04-07T06:56:03.040Z,4.30
2019-04-07T06:58:41.819Z,6.23
2019-04-07T07:01:33.963Z,4.60
2019-04-07T07:04:23.227Z,4.00
2019-04-07T07:07:06.514Z,4.33
2019-04-07T07:09:58.069Z,4.40
2019-04-07T07:12:44.045Z,4.40
2019-04-07T07:15:45.009Z,4.40
2019-04-07T07:18:21.318Z,4.33
2019-04-07T07:21:03.779Z,4.50
2019-04-07T07:23:37.463Z,4.10
2019-04-07T07:26:08.124Z,4.30
2019-04-07T07:28:38.092Z,3.87
2019-04-07T07:31:07.968Z,4.23
2019-04-07T07:33:40.423Z,3.73
2019-04-07T07:36:09.598Z,4.27
2019-04-07T07:38:39.741Z,4.00
2019-04-07T07:41:09.918Z,4.33
2019-04-07T07:43:40.280Z,4.67
2019-04-07T07:46:10.236Z,4.70
2019-04-07T07:48:40.141Z,4.33
2019-04-07T07:51:12.932Z,4.47
2019-04-07T07:53:41.591Z,4.77
2019-04-07T07:56:13.579Z,4.77
2019-04-07T07:58:45.101Z,4.17
2019-04-07T08:01:15.936Z,4.33
2019-04-07T08:03:46.820Z,4.00
2019-04-07T08:06:17.340Z,4.23
2019-04-07T08:08:47.816Z,4.13
2019-04-07T08:11:18.770Z,4.60
2019-04-07T08:13:49.129Z,4.13
2019-04-07T08:16:19.253Z,4.10
2019-04-07T08:18:49.891Z,4.03
2019-04-07T08:21:20.413Z,4.37
2019-04-07T08:23:50.627Z,3.90
2019-04-07T08:26:24.299Z,4.60
2019-04-07T08:28:52.595Z,4.13
2019-04-07T08:31:24.046Z,4.13
2019-04-07T08:33:54.824Z,4.57
2019-04-07T08:36:24.855Z,4.73
2019-04-07T08:38:56.744Z,4.77
2019-04-07T08:41:26.727Z,4.93
2019-04-07T08:43:57.881Z,4.90
2019-04-07T08:46:32.206Z,5.40
2019-04-07T08:49:03.118Z,6.70
2019-04-07T08:51:33.649Z,5.87
2019-04-07T08:54:04.769Z,7.53
2019-04-07T08:56:35.206Z,9.43
2019-04-07T08:59:08.476Z,7.50
2019-04-07T09:01:37.198Z,6.87
2019-04-07T09:04:07.683Z,5.07
2019-04-07T09:06:38.576Z,5.43
2019-04-07T09:09:09.088Z,5.67
2019-04-07T09:11:41.181Z,6.23
2019-04-07T09:14:11.721Z,6.10
2019-04-07T09:17:00.634Z,5.83
2019-04-07T09:19:58.559Z,6.90
2019-04-07T09:22:47.495Z,9.87
2019-04-07T09:25:43.603Z,10.03
2019-04-07T09:28:41.956Z,10.57
2019-04-07T09:31:33.637Z,10.00
2019-04-07T09:34:22.244Z,10.23
2019-04-07T09:37:02.221Z,10.90
2019-04-07T09:39:59.594Z,11.70
2019-04-07T09:42:37.893Z,11.37
2019-04-07T09:45:27.664Z,11.10
2019-04-07T09:48:17.719Z,12.47
2019-04-07T09:51:07.234Z,13.00
2019-04-07T09:54:00.883Z,12.97
2019-04-07T09:56:48.411Z,12.93
2019-04-07T09:59:37.530Z,13.90
2019-04-07T10:02:26.152Z,13.27
2019-04-07T10:05:14.221Z,14.27
2019-04-07T10:08:03.301Z,13.43
2019-04-07T10:11:08.443Z,13.53
2019-04-07T10:13:57.800Z,13.70
2019-04-07T10:16:35.383Z,13.33
2019-04-07T10:19:33.838Z,16.40
2019-04-07T10:22:15.036Z,15.63
2019-04-07T10:24:58.281Z,16.30
2019-04-07T10:27:59.435Z,17.07
2019-04-07T10:30:39.945Z,16.13
2019-04-07T10:33:27.542Z,18.27
2019-04-07T10:36:23.641Z,19.17
2019-04-07T10:39:00.963Z,19.20
2019-04-07T10:41:49.584Z,17.93
2019-04-07T10:44:53.784Z,17.37
2019-04-07T10:47:43.664Z,18.03
2019-04-07T10:50:36.716Z,18.90
2019-04-07T10:53:20.577Z,18.27
2019-04-07T10:56:08.817Z,19.17
2019-04-07T10:58:58.236Z,19.07
2019-04-07T11:01:36.224Z,21.80
2019-04-07T11:04:19.880Z,21.53
2019-04-07T11:07:03.002Z,22.53
2019-04-07T11:09:58.911Z,20.57
2019-04-07T11:12:48.040Z,19.73
2019-04-07T11:15:43.239Z,17.77
2019-04-07T11:18:34.884Z,18.20
2019-04-07T11:21:22.701Z,16.40
2019-04-07T11:24:10.501Z,17.73
2019-04-07T11:27:05.636Z,17.67
2019-04-07T11:29:43.697Z,20.23
2019-04-07T11:32:35.928Z,20.53
2019-04-07T11:35:29.899Z,22.00
2019-04-07T11:38:19.819Z,20.23
2019-04-07T11:41:12.350Z,22.50
2019-04-07T11:44:20.335Z,20.47
2019-04-07T11:46:59.425Z,19.97
2019-04-07T11:49:41.413Z,20.93
2019-04-07T11:52:27.828Z,21.90
2019-04-07T11:55:08.567Z,21.23
2019-04-07T11:58:15.132Z,20.07
2019-04-07T12:00:59.264Z,21.10
2019-04-07T12:03:54.995Z,21.93
2019-04-07T12:06:36.239Z,20.17
2019-04-07T12:09:18.510Z,20.43
2019-04-07T12:11:58.221Z,20.53
2019-04-07T12:14:41.747Z,21.83
2019-04-07T12:17:33.984Z,21.40
2019-04-07T12:20:25.656Z,22.20
2019-04-07T12:23:20.950Z,21.60
2019-04-07T12:26:02.188Z,22.37
2019-04-07T12:28:50.426Z,20.73
2019-04-07T12:31:37.830Z,20.53
2019-04-07T12:34:24.218Z,22.33
2019-04-07T12:37:12.154Z,22.70
2019-04-07T12:39:50.927Z,21.03
2019-04-07T12:42:58.150Z,20.27
2019-04-07T12:45:59.363Z,18.77
2019-04-07T12:48:51.075Z,18.67
2019-04-07T12:51:32.920Z,18.17
2019-04-07T12:54:28.761Z,17.50
2019-04-07T12:57:16.864Z,17.20
2019-04-07T13:00:03.576Z,16.37
2019-04-07T13:02:53.937Z,17.50
2019-04-07T13:05:55.251Z,17.70
2019-04-07T13:08:57.823Z,19.83
2019-04-07T13:11:38.218Z,17.27
2019-04-07T13:14:23.784Z,16.47
2019-04-07T13:17:31.637Z,17.40
2019-04-07T13:20:11.872Z,17.20
2019-04-07T13:23:00.343Z,18.80
2019-04-07T13:25:50.468Z,14.30
2019-04-07T13:28:44.730Z,14.37
2019-04-07T13:31:33.548Z,14.83
2019-04-07T13:34:18.849Z,14.33
2019-04-07T13:37:13.543Z,14.00
2019-04-07T13:40:02.401Z,13.40
2019-04-07T13:42:39.016Z,12.67
2019-04-07T13:45:19.157Z,13.77
2019-04-07T13:48:11.612Z,12.43
2019-04-07T13:51:04.606Z,9.80
2019-04-07T13:53:52.778Z,11.10
2019-04-07T13:56:41.895Z,11.63
2019-04-07T13:59:44.532Z,10.90
2019-04-07T14:02:40.988Z,10.17
2019-04-07T14:05:13.039Z,11.00
2019-04-07T14:08:00.804Z,10.13
2019-04-07T14:10:38.292Z,9.17
2019-04-07T14:13:28.198Z,8.30
2019-04-07T14:16:20.114Z,7.50
2019-04-07T14:19:08.943Z,8.30
2019-04-07T14:22:13.290Z,7.83
2019-04-07T14:24:54.768Z,7.93
2019-04-07T14:27:43.661Z,7.60
2019-04-07T14:30:21.296Z,7.80
2019-04-07T14:33:21.448Z,7.40
2019-04-07T14:36:04.416Z,6.97
2019-04-07T14:38:45.596Z,7.47
2019-04-07T14:41:32.005Z,7.20
2019-04-07T14:44:30.430Z,7.97
2019-04-07T14:47:26.115Z,7.07
2019-04-07T14:50:08.028Z,7.63
2019-04-07T14:52:56.665Z,7.83
2019-04-07T14:55:45.670Z,8.27
2019-04-07T14:58:38.033Z,7.43
2019-04-07T15:01:22.573Z,8.53
2019-04-07T15:03:52.577Z,9.20
2019-04-07T15:06:23.881Z,9.90
2019-04-07T15:09:06.750Z,9.27
2019-04-07T15:11:39.589Z,9.80
2019-04-07T15:14:11.615Z,8.90
2019-04-07T15:16:41.114Z,9.13
2019-04-07T15:19:12.453Z,8.47
2019-04-07T15:21:50.783Z,8.73
2019-04-07T15:24:20.588Z,9.80
2019-04-07T15:26:54.756Z,9.20
2019-04-07T15:29:31.323Z,9.90
2019-04-07T15:32:02.950Z,10.33
2019-04-07T15:34:34.885Z,9.50
2019-04-07T15:37:10.813Z,10.47
2019-04-07T15:39:47.240Z,11.07
2019-04-07T15:42:34.980Z,10.03
2019-04-07T15:45:16.747Z,10.30
2019-04-07T15:47:47.300Z,10.63
2019-04-07T15:50:24.797Z,10.20
2019-04-07T15:53:07.288Z,9.43
2019-04-07T15:56:08.281Z,10.83
2019-04-07T15:58:41.800Z,10.07
2019-04-07T16:01:17.246Z,10.20
2019-04-07T16:03:51.324Z,10.33
2019-04-07T16:06:20.589Z,9.53
2019-04-07T16:08:51.211Z,10.77
2019-04-07T16:11:24.186Z,9.50
2019-04-07T16:13:54.077Z,9.77
2019-04-07T16:16:27.484Z,9.97
2019-04-07T16:18:55.666Z,10.33
2019-04-07T16:21:27.842Z,9.30
2019-04-07T16:23:57.422Z,10.13
2019-04-07T16:26:30.192Z,9.87
2019-04-07T16:28:58.861Z,11.17
2019-04-07T16:31:28.887Z,9.87
2019-04-07T16:33:59.180Z,9.67
2019-04-07T16:36:30.181Z,9.83
2019-04-07T16:39:01.907Z,9.63
2019-04-07T16:41:31.704Z,10.33
2019-04-07T16:44:04.775Z,10.20
2019-04-07T16:46:33.753Z,10.30
2019-04-07T16:49:04.554Z,9.87
2019-04-07T16:51:35.127Z,9.97
2019-04-07T16:54:08.336Z,9.90
2019-04-07T16:56:37.968Z,9.23
2019-04-07T16:59:09.768Z,9.60
2019-04-07T17:01:39.938Z,9.07
2019-04-07T17:04:09.953Z,9.03
2019-04-07T17:06:40.181Z,8.93
2019-04-07T17:09:22.151Z,9.50
2019-04-07T17:11:50.475Z,10.03
2019-04-07T17:14:20.618Z,9.20
2019-04-07T17:16:50.663Z,9.10
2019-04-07T17:19:21.383Z,9.10
2019-04-07T17:21:51.965Z,8.70
2019-04-07T17:24:25.074Z,9.13
2019-04-07T17:26:53.554Z,9.13
2019-04-07T17:29:23.865Z,8.57
2019-04-07T17:31:55.466Z,8.90
2019-04-07T17:34:26.173Z,8.90
2019-04-07T17:36:56.464Z,8.43
2019-04-07T17:39:48.328Z,8.07
2019-04-07T17:42:20.104Z,8.77
2019-04-07T17:45:20.417Z,7.80
2019-04-07T17:48:07.112Z,9.00
2019-04-07T17:51:01.047Z,8.77
2019-04-07T17:53:53.898Z,8.03
2019-04-07T17:56:43.190Z,8.77
2019-04-07T17:59:32.845Z,8.83
2019-04-07T18:02:17.118Z,9.20
2019-04-07T18:05:00.716Z,9.07
2019-04-07T18:07:56.430Z,9.47
2019-04-07T18:10:57.868Z,9.87
2019-04-07T18:13:49.694Z,10.40
2019-04-07T18:16:35.255Z,9.93
2019-04-07T18:19:22.403Z,9.87
2019-04-07T18:22:10.321Z,10.63
2019-04-07T18:25:01.876Z,10.23
2019-04-07T18:27:47.483Z,10.20
2019-04-07T18:30:35.742Z,10.57
2019-04-07T18:33:22.793Z,9.93
2019-04-07T18:36:12.021Z,9.87
2019-04-07T18:39:11.207Z,10.50
2019-04-07T18:42:06.555Z,10.50
2019-04-07T18:44:56.231Z,9.93
2019-04-07T18:47:37.002Z,9.40
2019-04-07T18:50:27.405Z,11.07
2019-04-07T18:53:27.599Z,10.07
2019-04-07T18:56:30.959Z,10.00
2019-04-07T18:59:32.078Z,10.13
2019-04-07T19:02:33.316Z,10.20
2019-04-07T19:05:36.438Z,10.77
2019-04-07T19:08:17.446Z,10.30
2019-04-07T19:11:18.158Z,11.00
2019-04-07T19:14:20.404Z,10.53
2019-04-07T19:16:36.212Z,10.73
2019-04-07T19:19:24.079Z,9.97
2019-04-07T19:22:28.414Z,9.57
2019-04-07T19:25:20.364Z,10.47
2019-04-07T19:28:09.402Z,9.83
2019-04-07T19:30:59.219Z,9.87
2019-04-07T19:33:55.932Z,10.70
2019-04-07T19:36:46.560Z,9.07
2019-04-07T19:39:32.917Z,9.60
2019-04-07T19:42:28.500Z,10.03
2019-04-07T19:45:24.773Z,10.80
2019-04-07T19:48:09.871Z,9.80
2019-04-07T19:51:14.337Z,10.70
2019-04-07T19:54:06.621Z,11.60
2019-04-07T19:56:57.646Z,11.93
2019-04-07T20:00:02.582Z,11.93
2019-04-07T20:02:51.746Z,12.10
2019-04-07T20:05:43.040Z,12.77
2019-04-07T20:08:33.862Z,11.33
2019-04-07T20:11:22.154Z,12.63
2019-04-07T20:14:14.527Z,11.67
2019-04-07T20:17:04.169Z,12.60
2019-04-07T20:19:53.584Z,11.63
2019-04-07T20:22:56.277Z,10.07
2019-04-07T20:25:35.486Z,10.50
2019-04-07T20:28:15.195Z,9.63
2019-04-07T20:31:12.627Z,10.30
2019-04-07T20:34:06.418Z,9.13
2019-04-07T20:36:58.304Z,9.90
2019-04-07T20:39:47.748Z,9.93
2019-04-07T20:42:22.336Z,9.67
2019-04-07T20:45:17.505Z,9.47
2019-04-07T20:48:07.669Z,9.47
2019-04-07T20:50:58.330Z,9.47
2019-04-07T20:53:53.678Z,8.43
2019-04-07T20:56:44.409Z,9.03
2019-04-07T20:59:33.315Z,10.00
2019-04-07T21:02:23.236Z,9.57
2019-04-07T21:05:05.678Z,9.03
2019-04-07T21:07:47.388Z,9.87
2019-04-07T21:10:39.348Z,8.73
2019-04-07T21:13:37.566Z,8.53
2019-04-07T21:16:17.671Z,9.33
2019-04-07T21:18:59.123Z,8.47
2019-04-07T21:21:57.195Z,8.83
2019-04-07T21:24:52.955Z,12.10
2019-04-07T21:27:36.148Z,8.90
2019-04-07T21:30:39.917Z,9.37
2019-04-07T21:33:47.649Z,8.83
2019-04-07T21:36:37.616Z,8.50
2019-04-07T21:39:39.613Z,8.50
2019-04-07T21:42:31.881Z,9.23
2019-04-07T21:45:32.629Z,9.33
2019-04-07T21:48:09.678Z,9.03
2019-04-07T21:50:55.106Z,9.17
2019-04-07T21:53:32.477Z,8.50
2019-04-07T21:56:22.088Z,8.73
2019-04-07T21:59:18.554Z,9.13
2019-04-07T22:02:13.826Z,8.27
2019-04-07T22:05:03.889Z,8.47
2019-04-07T22:07:43.997Z,9.83
2019-04-07T22:10:18.474Z,8.63
2019-04-07T22:12:46.078Z,8.63
2019-04-07T22:15:17.221Z,8.97
2019-04-07T22:17:47.882Z,8.97
2019-04-07T22:20:20.130Z,8.80
2019-04-07T22:22:49.675Z,8.50
2019-04-07T22:25:29.117Z,9.73
2019-04-07T22:27:59.455Z,9.13
2019-04-07T22:30:29.403Z,8.40
2019-04-07T22:32:59.817Z,9.33
2019-04-07T22:35:30.022Z,9.20
2019-04-07T22:38:00.978Z,8.90
2019-04-07T22:40:34.218Z,8.57
2019-04-07T22:43:02.527Z,9.50
2019-04-07T22:45:32.521Z,8.50
2019-04-07T22:48:03.417Z,9.17
2019-04-07T22:50:37.158Z,9.30
2019-04-07T22:53:04.948Z,9.07
2019-04-07T22:55:36.047Z,8.60
2019-04-07T22:58:05.988Z,9.17
2019-04-07T23:00:35.926Z,8.57
2019-04-07T23:03:05.941Z,9.43
2019-04-07T23:05:35.986Z,9.10
2019-04-07T23:08:05.919Z,8.40
2019-04-07T23:10:35.816Z,8.67
2019-04-07T23:13:05.725Z,9.80
2019-04-07T23:15:40.158Z,8.43
2019-04-07T23:18:07.473Z,9.37
2019-04-07T23:20:37.623Z,8.10
2019-04-07T23:23:07.648Z,9.07
2019-04-07T23:25:38.501Z,8.37
2019-04-07T23:28:08.699Z,9.03
2019-04-07T23:30:38.615Z,8.90
2019-04-07T23:33:08.533Z,7.90
2019-04-07T23:35:39.223Z,8.10
2019-04-07T23:38:09.245Z,8.53
2019-04-07T23:40:39.851Z,8.43
2019-04-07T23:43:09.787Z,8.67
2019-04-07T23:45:39.946Z,8.37
2019-04-07T23:48:10.437Z,7.63
2019-04-07T23:50:41.148Z,7.13
2019-04-07T23:53:47.143Z,6.47
2019-04-07T23:56:17.662Z,8.20
2019-04-07T23:58:47.669Z,7.97
